INDEKS ZAGROŻENIA POŻAROWEGO (FWI)
Indeks zagrożenia pożarowego za ostatnie 365 dni


Legenda:
Niskie (0-210)
B.Wysokie (490 - 630)

Umiark. (210 - 350)
Extremalne (630+)

Wysokie (350 - 490)


182.53
Date Temp. (°C) Wind Speed (km/h) Rain (mm) RH Days Since Rain pwsFWI
Prognozy zagrożenia pożarowego - wartości ponad czerwoną linią.
07/04/20 14,00 24,00 0,00 0,59 4 126,95
06/04/20 15,00 22,00 0,00 0,47 3 116,27
05/04/20 11,00 17,00 0,00 0,46 2 95,68
04/04/20 8,00 22,00 0,00 0,41 1 95,16
03/04/20 7,00 37,00 1,30 0,47 0 140,89
02/04/20 8,10 31,70 1,20 0,48 0 182,53
01/04/20 5,30 27,10 0,90 0,55 0 199,92
31/03/20 3,40 20,80 0,60 0,38 0 211,97
30/03/20 4,80 22,30 0,00 0,36 1 219,56
29/03/20 5,70 35,30 0,60 0,15 0 211,34
28/03/20 16,00 14,10 0,00 0,15 7 180,71
27/03/20 14,20 13,60 0,00 0,20 6 161,13
26/03/20 9,90 18,00 0,00 0,23 5 153,28
25/03/20 9,90 13,70 0,00 0,20 4 137,02
24/03/20 8,60 9,70 0,00 0,20 3 109,32
23/03/20 4,80 15,00 0,00 0,33 2 184,91
22/03/20 2,10 25,40 0,00 0,31 1 201,80
21/03/20 4,20 27,70 0,30 0,38 0 209,97
20/03/20 8,40 16,80 0,00 0,50 1 219,74
19/03/20 8,80 14,30 1,50 0,50 0 230,98
18/03/20 15,50 33,40 0,00 0,20 4 226,90
17/03/20 12,00 23,70 0,00 0,47 3 131,99
16/03/20 10,60 21,20 0,00 0,37 2 95,82
15/03/20 7,70 25,60 0,00 0,31 1 60,74
14/03/20 2,20 22,60 0,60 0,30 0 22,65
13/03/20 8,00 31,70 2,70 0,52 0 33,14
12/03/20 10,40 66,20 14,40 0,51 0 44,07
11/03/20 8,50 44,80 7,20 0,46 0 34,72
10/03/20 9,80 24,10 2,10 0,51 0 44,06
09/03/20 10,40 13,60 1,20 0,53 0 37,82
08/03/20 8,30 15,40 0,00 0,50 1 30,77
07/03/20 6,00 16,00 3,90 0,83 0 15,47
06/03/20 6,30 19,90 2,70 0,61 0 20,34
05/03/20 7,70 15,40 0,30 0,60 0 12,93
04/03/20 6,00 27,20 1,50 0,60 0 24,13
03/03/20 6,10 15,90 4,50 0,83 0 30,28
02/03/20 8,00 11,60 1,50 0,70 0 56,94
01/03/20 9,70 31,50 2,40 0,41 0 75,54
29/02/20 4,10 19,60 1,20 0,65 0 83,75
28/02/20 3,80 24,20 0,60 0,64 0 78,13
27/02/20 2,50 21,40 0,30 0,56 0 64,17
26/02/20 5,40 29,60 0,00 0,52 1 51,39
25/02/20 8,10 32,60 4,20 0,46 0 59,23
24/02/20 6,30 27,80 0,90 0,53 0 40,24
23/02/20 5,70 41,60 3,90 0,62 0 29,78
22/02/20 7,90 39,80 3,00 0,56 0 102,38
21/02/20 5,90 32,20 2,70 0,62 0 143,77
20/02/20 6,50 19,80 0,00 0,60 1 140,63
19/02/20 6,10 20,80 2,10 0,70 0 138,94
18/02/20 7,40 39,50 5,40 0,65 0 142,55
17/02/20 12,70 38,90 0,90 0,40 0 133,07
16/02/20 11,70 34,10 0,00 0,48 3 67,65
15/02/20 4,60 18,50 0,00 0,77 2 17,97
14/02/20 6,10 9,90 0,00 0,53 1 35,41
13/02/20 4,30 29,30 1,20 0,65 0 47,16
12/02/20 3,40 33,40 6,90 0,70 0 54,84
11/02/20 3,60 34,10 9,90 0,69 0 44,21
10/02/20 7,90 38,40 8,70 0,67 0 65,13
09/02/20 7,00 35,60 0,60 0,64 0 38,64
08/02/20 6,00 15,80 0,00 0,56 2 26,69
07/02/20 4,50 14,50 0,00 0,55 1 23,69
06/02/20 4,90 24,50 5,40 0,76 0 15,09
05/02/20 3,40 24,40 0,00 0,54 1 30,19
04/02/20 4,70 21,90 5,10 0,80 0 14,19
03/02/20 5,10 19,60 0,60 0,66 0 11,70
02/02/20 6,80 42,70 1,80 0,65 0 14,75
01/02/20 10,50 21,50 8,40 0,81 0 6,78
31/01/20 6,80 27,90 11,40 0,85 0 9,96
30/01/20 5,90 21,60 6,90 0,83 0 9,48
29/01/20 2,90 25,80 6,30 0,81 0 16,01
28/01/20 4,60 15,00 3,30 0,84 0 23,20
27/01/20 3,10 12,10 0,30 0,82 0 45,55
26/01/20 2,80 15,30 0,00 0,83 1 56,50
25/01/20 3,70 19,90 1,50 0,87 0 68,53
24/01/20 3,60 23,60 0,30 0,83 0 73,85
23/01/20 2,90 24,10 0,00 0,79 1 81,83
22/01/20 5,90 36,50 0,60 0,64 0 77,64
21/01/20 5,00 33,10 0,60 0,77 0 73,24
20/01/20 4,60 21,90 0,00 0,60 6 87,59
19/01/20 5,00 14,60 0,00 0,71 5 81,94
18/01/20 6,00 19,80 0,00 0,64 4 73,56
17/01/20 2,80 15,60 0,00 0,81 3 67,63
16/01/20 6,80 25,30 0,00 0,60 2 75,33
15/01/20 10,10 21,90 0,00 0,60 1 54,35
14/01/20 6,10 22,60 0,30 0,76 0 37,20
13/01/20 6,40 24,50 1,80 0,78 0 43,48
12/01/20 3,70 25,10 0,90 0,79 0 41,67
11/01/20 5,90 24,40 0,30 0,71 0 33,28
10/01/20 9,60 25,60 4,80 0,80 0 38,32
09/01/20 7,60 16,40 0,00 0,84 1 33,21
08/01/20 7,40 23,90 0,60 0,77 0 26,73
07/01/20 3,10 13,00 0,00 0,83 1 38,50
06/01/20 3,00 16,80 2,70 0,79 0 53,08
05/01/20 2,30 20,90 0,00 0,60 1 51,41
04/01/20 4,30 32,90 3,00 0,69 0 83,35
03/01/20 4,50 24,40 1,80 0,59 0 92,54
02/01/20 5,30 23,40 0,00 0,47 2 93,80
01/01/20 4,20 32,90 0,00 0,70 1 79,28
31/12/19 6,40 28,50 1,50 0,45 0 77,07
30/12/19 6,20 31,10 0,00 0,38 2 64,01
29/12/19 1,20 19,80 0,00 0,65 1 26,48
28/12/19 1,50 18,80 0,30 0,70 0 18,89
27/12/19 2,70 22,20 0,00 0,74 1 14,99
26/12/19 4,20 14,40 2,10 0,83 0 7,45
25/12/19 4,80 11,70 1,50 0,87 0 15,80
24/12/19 6,00 15,30 1,50 0,86 0 20,13
23/12/19 5,20 11,50 0,30 0,87 0 63,05
22/12/19 5,10 12,20 0,30 0,87 0 66,60
21/12/19 7,00 15,30 3,60 0,86 0 80,05
20/12/19 8,60 14,50 0,00 0,72 2 94,75
19/12/19 3,50 12,20 0,00 0,81 1 69,84
18/12/19 9,40 48,90 0,30 0,61 0 65,20
17/12/19 6,80 15,70 0,00 0,80 1 26,75
16/12/19 5,90 25,30 0,30 0,70 0 31,68
15/12/19 5,40 27,60 0,60 0,70 0 32,44
14/12/19 3,20 16,40 5,10 0,85 0 18,85
13/12/19 1,90 14,40 1,50 0,82 0 19,41
12/12/19 0,40 15,50 0,00 0,72 2 19,59
11/12/19 1,80 21,80 0,00 0,60 1 25,92
10/12/19 5,20 25,90 1,20 0,62 0 31,39
09/12/19 7,60 31,60 2,70 0,70 0 40,54
08/12/19 8,00 32,20 1,80 0,77 0 47,41
07/12/19 7,00 37,00 11,10 0,77 0 45,15
06/12/19 3,10 28,90 0,30 0,71 0 39,74
05/12/19 4,50 19,60 0,00 0,70 3 30,51
04/12/19 5,90 19,50 0,00 0,78 2 19,05
03/12/19 2,50 20,10 0,00 0,70 1 18,92
02/12/19 2,30 0,40 3,00 0,82 0 9,42
01/12/19 2,20 0,50 0,00 0,81 2 11,48
30/11/19 3,40 1,20 0,00 0,70 1 10,96
29/11/19 8,10 29,20 7,20 0,73 0 19,66
28/11/19 9,30 15,10 0,30 0,75 0 19,32
27/11/19 6,10 0,00 0,30 0,90 0 16,66
26/11/19 3,10 0,00 0,00 0,88 4 27,39
25/11/19 1,00 0,00 0,00 0,85 3 31,49
24/11/19 1,90 18,20 0,00 0,82 2 46,02
23/11/19 2,10 16,30 0,00 0,77 1 48,69
22/11/19 4,80 18,90 0,90 0,81 0 53,25
21/11/19 8,20 19,90 0,30 0,84 0 62,45
20/11/19 7,90 15,50 0,00 0,84 2 65,75
19/11/19 8,80 18,30 0,00 0,62 1 59,47
18/11/19 9,70 18,10 0,60 0,81 0 42,74
17/11/19 9,60 15,20 0,00 0,70 3 37,47
16/11/19 10,80 20,50 0,00 0,71 2 31,16
15/11/19 8,20 19,90 0,00 0,81 1 22,27
14/11/19 6,00 16,70 2,70 0,80 0 8,69
13/11/19 6,10 11,20 13,20 0,89 0 12,13
12/11/19 6,30 12,60 6,60 0,81 0 15,37
11/11/19 4,70 13,60 0,00 0,76 2 15,84
10/11/19 7,60 15,60 0,00 0,77 1 16,75
09/11/19 8,00 15,20 8,10 0,86 0 9,79
08/11/19 7,90 14,30 0,00 0,81 2 14,77
07/11/19 8,90 5,20 0,00 0,79 1 7,98
06/11/19 7,40 9,30 2,10 0,84 0 20,12
05/11/19 9,20 15,10 1,80 0,84 0 31,77
04/11/19 11,40 14,80 9,90 0,87 0 42,02
03/11/19 10,70 12,50 0,30 0,86 0 56,44
02/11/19 9,80 16,60 4,50 0,66 0 58,77
01/11/19 7,30 15,00 0,00 0,54 2 53,94
31/10/19 5,90 15,10 0,00 0,63 1 74,61
30/10/19 7,30 11,80 0,30 0,53 0 97,91
29/10/19 8,00 15,70 0,00 0,52 1 92,80
28/10/19 9,00 18,80 3,00 0,76 0 90,64
27/10/19 13,80 30,20 1,20 0,60 0 120,24
26/10/19 16,50 25,80 0,00 0,63 6 115,24
25/10/19 16,80 23,90 0,00 0,62 5 83,43
24/10/19 12,60 11,20 0,00 0,84 4 62,16
23/10/19 13,90 8,60 0,00 0,64 3 76,11
22/10/19 16,50 14,50 0,00 0,71 2 65,30
21/10/19 16,60 11,20 0,00 0,81 1 48,55
20/10/19 15,30 6,20 0,30 0,77 0 61,86
19/10/19 13,30 13,50 0,30 0,65 0 106,88
18/10/19 17,00 14,10 0,60 0,63 0 92,47
17/10/19 15,70 26,00 4,20 0,71 0 85,72
16/10/19 16,40 24,30 7,20 0,75 0 102,75
15/10/19 19,40 14,20 0,00 0,65 1 96,21
14/10/19 18,60 25,40 0,30 0,54 0 72,87
13/10/19 17,40 11,00 2,70 0,74 0 28,58
12/10/19 14,10 24,90 4,50 0,76 0 51,05
11/10/19 12,90 26,60 0,30 0,71 0 57,99
10/10/19 12,00 24,80 3,60 0,70 0 63,50
09/10/19 13,80 23,40 2,10 0,63 0 78,24
08/10/19 10,30 14,90 2,10 0,77 0 68,89
07/10/19 9,10 20,60 0,90 0,61 0 64,61
06/10/19 8,70 18,40 0,30 0,60 0 46,06
05/10/19 9,90 17,60 0,00 0,58 1 30,52
04/10/19 11,40 10,70 0,30 0,60 0 11,52
03/10/19 12,30 14,90 1,80 0,61 0 8,30
02/10/19 10,80 11,30 6,30 0,75 0 2,44
01/10/19 13,80 24,50 4,50 0,71 0 27,67
30/09/19 15,70 28,30 13,50 0,71 0 41,32
29/09/19 15,60 23,90 6,30 0,72 0 66,40
28/09/19 17,50 19,60 3,00 0,68 0 85,15
27/09/19 16,80 11,40 14,10 0,74 0 107,73
26/09/19 20,10 9,00 0,00 0,61 4 107,96
25/09/19 16,50 12,60 0,00 0,68 3 90,48
24/09/19 17,70 15,50 0,00 0,57 2 74,38
23/09/19 14,30 15,50 0,00 0,72 1 46,44
22/09/19 20,50 15,50 0,30 0,58 0 31,32
21/09/19 14,20 17,40 1,20 0,82 0 56,59
20/09/19 13,50 15,10 1,80 0,50 0 168,28
19/09/19 13,70 25,10 2,10 0,49 0 231,36
18/09/19 13,20 24,30 4,80 0,54 0 265,82
17/09/19 11,50 28,60 11,70 0,64 0 311,38
16/09/19 14,80 31,30 0,00 0,51 1 358,42
15/09/19 19,40 33,40 0,60 0,30 0 250,55
14/09/19 16,40 29,40 0,00 0,50 1 146,46
13/09/19 18,20 23,70 0,90 0,62 0 90,75
12/09/19 19,30 24,30 0,00 0,51 2 55,19
11/09/19 20,20 21,70 0,00 0,46 1 116,97
10/09/19 17,10 31,00 28,20 0,70 0 135,50
09/09/19 20,70 17,90 1,50 0,70 0 178,66
08/09/19 18,20 11,60 7,20 0,75 0 228,34
07/09/19 18,50 10,90 3,60 0,46 0 286,00
06/09/19 20,10 20,50 0,00 0,37 4 228,31
05/09/19 21,00 21,10 0,00 0,40 3 244,07
04/09/19 23,10 14,10 0,00 0,47 2 226,91
03/09/19 19,70 22,90 0,00 0,44 1 257,55
02/09/19 19,40 19,20 0,60 0,43 0 173,23
01/09/19 31,30 23,20 15,30 0,39 0 273,36
31/08/19 30,40 15,40 0,00 0,42 2 331,15
30/08/19 26,20 12,50 0,00 0,45 1 340,78
29/08/19 28,80 16,10 0,30 0,42 0 445,40
28/08/19 31,50 19,10 6,00 0,34 0 485,18
27/08/19 32,00 16,00 0,00 0,30 5 496,16
26/08/19 30,90 16,30 0,00 0,32 4 388,87
25/08/19 28,60 16,10 0,00 0,30 3 363,77
24/08/19 29,70 13,10 0,00 0,28 2 338,40
23/08/19 27,10 15,60 0,00 0,33 1 316,23
22/08/19 25,20 10,60 0,30 0,34 0 302,51
21/08/19 21,10 19,10 1,50 0,52 0 321,29
20/08/19 24,50 17,40 0,00 0,30 3 379,66
19/08/19 25,70 16,10 0,00 0,40 2 356,21
18/08/19 25,80 17,30 0,00 0,50 1 239,30
17/08/19 23,60 17,80 0,30 0,40 0 234,97
16/08/19 22,40 16,00 0,60 0,53 0 300,00
15/08/19 24,90 17,30 0,00 0,28 2 134,26
14/08/19 19,60 19,80 0,00 0,42 1 107,27
13/08/19 23,30 28,30 10,50 0,41 0 85,77
12/08/19 23,60 20,20 0,00 0,54 1 116,22
11/08/19 27,60 25,00 0,30 0,31 0 287,56
10/08/19 25,10 16,90 12,60 0,60 0 237,75
09/08/19 21,80 25,00 1,50 0,57 0 296,09
08/08/19 22,60 25,40 6,60 0,48 0 354,87
07/08/19 26,30 15,20 0,90 0,41 0 392,44
06/08/19 26,00 27,40 0,30 0,46 0 350,49
05/08/19 23,80 20,20 0,00 0,47 8 308,71
04/08/19 23,70 13,40 0,00 0,43 7 304,04
03/08/19 23,60 18,60 0,00 0,42 6 353,21
02/08/19 21,80 20,40 0,00 0,42 5 396,30
01/08/19 19,10 11,20 0,00 0,61 4 333,64
31/07/19 22,20 15,70 0,00 0,41 3 390,22
30/07/19 23,70 20,70 0,00 0,51 2 395,77
29/07/19 29,80 19,20 0,00 0,41 1 374,40
28/07/19 32,40 19,30 0,90 0,43 0 278,58
27/07/19 25,10 28,50 3,90 0,59 0 269,38
26/07/19 24,50 23,20 0,00 0,46 2 234,23
25/07/19 25,70 17,00 0,00 0,50 1 229,80
24/07/19 25,50 13,00 0,30 0,54 0 248,82
23/07/19 19,20 10,50 1,50 0,76 0 256,32
22/07/19 21,80 23,20 0,00 0,50 1 300,77
21/07/19 23,90 17,10 4,80 0,56 0 261,58
20/07/19 28,90 14,90 0,00 0,38 4 325,14
19/07/19 27,30 14,00 0,00 0,25 3 321,16
18/07/19 23,90 11,70 0,00 0,41 2 282,53
17/07/19 20,50 18,20 0,00 0,44 1 314,91
16/07/19 20,70 21,60 1,20 0,43 0 366,60
15/07/19 24,10 19,80 0,00 0,31 6 390,35
14/07/19 21,30 20,80 0,00 0,33 5 259,79
13/07/19 21,30 15,50 0,00 0,51 4 236,09
12/07/19 23,90 19,30 0,00 0,35 3 196,71
11/07/19 24,20 18,90 0,00 0,37 2 121,47
10/07/19 18,30 24,20 0,00 0,53 1 48,73
09/07/19 16,20 20,70 12,90 0,76 0 6,09
08/07/19 16,20 22,50 11,70 0,66 0 97,29
07/07/19 15,60 29,20 1,80 0,69 0 103,93
06/07/19 17,10 19,00 4,80 0,71 0 98,64
05/07/19 18,90 31,70 8,10 0,36 0 376,42
04/07/19 16,80 32,40 1,80 0,50 0 525,45
03/07/19 18,10 31,20 0,00 0,32 1 603,42
02/07/19 17,80 34,60 1,20 0,44 0 593,04
01/07/19 24,40 24,50 2,40 0,31 0 791,67
30/06/19 36,10 24,40 0,00 0,11 3 837,79
29/06/19 26,60 28,70 0,00 0,26 2 645,13
28/06/19 25,80 22,00 0,00 0,26 1 565,22
27/06/19 21,50 25,50 0,90 0,70 0 513,05
26/06/19 33,50 25,80 0,00 0,30 6 523,88
25/06/19 31,90 15,20 0,00 0,34 5 336,39
24/06/19 26,00 16,20 0,00 0,38 4 318,54
23/06/19 25,10 15,00 0,00 0,28 3 300,22
22/06/19 22,60 16,20 0,00 0,36 2 319,85
21/06/19 23,60 16,10 0,00 0,53 1 290,81
20/06/19 29,50 12,90 3,60 0,42 0 247,93
19/06/19 30,80 15,40 0,00 0,43 3 284,59
18/06/19 29,80 9,80 0,00 0,39 2 141,34
17/06/19 28,00 18,50 0,00 0,36 1 211,60
16/06/19 17,70 27,30 0,90 0,74 0 235,46
15/06/19 28,80 30,90 9,00 0,40 0 170,12
14/06/19 27,70 12,60 0,00 0,31 1 270,79
13/06/19 25,10 21,70 8,10 0,60 0 139,69
12/06/19 34,50 16,10 0,00 0,31 1 206,36
11/06/19 33,60 14,70 0,30 0,44 0 306,29
10/06/19 27,80 29,90 22,80 0,46 0 381,83
09/06/19 26,10 17,80 0,00 0,30 1 462,75
08/06/19 26,00 30,80 12,00 0,53 0 530,04
07/06/19 24,30 12,90 5,40 0,62 0 568,35
06/06/19 31,60 22,00 0,00 0,33 5 502,68
05/06/19 32,20 18,80 0,00 0,33 4 416,68
04/06/19 34,10 14,60 0,00 0,23 3 381,21
03/06/19 33,50 16,60 0,00 0,30 2 305,62
02/06/19 26,70 12,60 0,00 0,31 1 199,94
01/06/19 24,40 19,60 6,60 0,50 0 158,09
31/05/19 20,10 22,50 0,30 0,51 0 192,74
30/05/19 23,50 18,70 0,00 0,20 2 180,27
29/05/19 15,50 19,90 0,00 0,35 1 197,17
28/05/19 13,00 15,60 9,90 0,80 0 187,77
27/05/19 17,80 25,60 1,20 0,62 0 265,77
26/05/19 17,00 28,80 0,00 0,51 5 304,71
25/05/19 14,10 24,70 0,00 0,53 4 249,15
24/05/19 22,70 15,50 0,00 0,31 3 210,87
23/05/19 15,90 21,40 0,00 0,56 2 151,00
22/05/19 25,50 15,70 0,00 0,40 1 116,05
21/05/19 25,00 17,00 0,30 0,50 0 53,72
20/05/19 25,00 18,10 3,90 0,62 0 21,73
19/05/19 21,40 12,00 1,20 0,71 0 62,18
18/05/19 23,60 13,60 3,00 0,59 0 101,77
17/05/19 18,50 14,60 15,60 0,77 0 112,81
16/05/19 17,00 26,90 3,90 0,64 0 153,73
15/05/19 12,40 32,60 4,80 0,49 0 199,75
14/05/19 10,50 31,40 0,00 0,33 4 179,85
13/05/19 11,00 21,20 0,00 0,42 3 177,26
12/05/19 12,70 13,00 0,00 0,41 2 192,41
11/05/19 15,40 14,30 0,00 0,46 1 207,15
10/05/19 19,40 15,40 0,30 0,41 0 212,49
09/05/19 15,30 20,30 1,20 0,46 0 235,04
08/05/19 16,90 18,20 0,00 0,26 1 261,75
07/05/19 11,70 26,30 0,30 0,33 0 209,01
06/05/19 12,30 19,40 0,00 0,31 3 228,96
05/05/19 12,30 16,90 0,00 0,31 2 251,35
04/05/19 10,40 26,70 0,00 0,34 1 280,67
03/05/19 10,10 30,20 0,90 0,40 0 235,29
02/05/19 10,20 44,50 2,70 0,62 0 247,62
01/05/19 16,70 24,60 0,30 0,30 0 303,54
30/04/19 17,10 20,30 0,00 0,22 1 326,05
29/04/19 16,10 28,10 0,90 0,38 0 360,49
28/04/19 11,80 19,20 3,60 0,82 0 452,34
27/04/19 17,00 25,90 0,00 0,64 30 545,34
26/04/19 27,30 15,40 0,00 0,31 29 585,51
25/04/19 27,30 17,90 0,00 0,33 28 578,14
24/04/19 20,70 29,30 0,00 0,32 27 557,40
23/04/19 19,50 39,20 0,00 0,15 26 531,87
22/04/19 19,60 21,90 0,00 0,32 25 437,23
21/04/19 17,20 23,20 0,00 0,15 24 425,71
20/04/19 16,60 24,00 0,00 0,22 23 385,76
19/04/19 19,60 18,90 0,00 0,22 22 358,27
18/04/19 18,30 21,60 0,00 0,20 21 311,69
17/04/19 17,10 18,80 0,00 0,22 20 253,95
16/04/19 12,50 25,70 0,00 0,23 19 205,79
15/04/19 10,10 22,80 0,00 0,32 18 168,93
14/04/19 9,70 26,20 0,00 0,30 17 149,45
13/04/19 5,70 23,50 0,00 0,50 16 136,27
12/04/19 3,60 20,80 0,00 0,52 15 168,78
11/04/19 3,20 16,10 0,00 0,60 14 211,41
10/04/19 6,00 21,20 0,00 0,46 13 255,53
09/04/19 5,90 19,40 0,00 0,45 12 298,08
CumulusUtils Version 2.4.5 - generated at 03/04/2020 00:47 - © Hans Rottier
Science background here. - NOTE: Behavioural testing still under way!
Prediction courtesy of https://www.yourweather.co.uk/



MAPA STACJI
Stacje pogodowe używające aplikacji 'Cumulusutils'"